createdAt,value
2022-08-12T00:00:36.955Z,72.30
2022-08-12T00:03:40.885Z,72.20
2022-08-12T00:06:47.257Z,72.50
2022-08-12T00:09:51.561Z,72.50
2022-08-12T00:12:56.600Z,72.50
2022-08-12T00:16:04.399Z,72.70
2022-08-12T00:19:08.371Z,73.00
2022-08-12T00:22:12.398Z,73.00
2022-08-12T00:25:20.471Z,73.00
2022-08-12T00:28:44.863Z,73.90
2022-08-12T00:31:48.740Z,73.30
2022-08-12T00:34:52.866Z,73.40
2022-08-12T00:37:56.475Z,73.70
2022-08-12T00:41:02.303Z,73.80
2022-08-12T00:43:48.904Z,73.80
2022-08-12T00:46:54.705Z,73.80
2022-08-12T00:49:42.360Z,74.00
2022-08-12T00:52:35.820Z,74.00
2022-08-12T00:55:22.052Z,73.80
2022-08-12T00:58:09.030Z,73.90
2022-08-12T01:01:07.637Z,74.00
2022-08-12T01:04:12.539Z,74.10
2022-08-12T01:07:17.488Z,74.30
2022-08-12T01:10:27.490Z,74.70
2022-08-12T01:13:20.522Z,74.90
2022-08-12T01:16:07.767Z,74.90
2022-08-12T01:18:55.470Z,75.20
2022-08-12T01:22:03.060Z,75.60
2022-08-12T01:24:57.780Z,75.70
2022-08-12T01:27:44.576Z,75.90
2022-08-12T01:30:33.939Z,76.30
2022-08-12T01:33:22.191Z,77.10
2022-08-12T01:36:10.830Z,76.70
2022-08-12T01:38:59.339Z,77.00
2022-08-12T01:41:53.826Z,77.30
2022-08-12T01:44:40.000Z,77.30
2022-08-12T01:47:30.455Z,77.50
2022-08-12T01:50:43.365Z,77.60
2022-08-12T01:53:52.129Z,77.70
2022-08-12T01:56:49.085Z,77.60
2022-08-12T01:59:50.363Z,77.70
2022-08-12T02:02:49.287Z,77.80
2022-08-12T02:06:15.026Z,77.90
2022-08-12T02:09:22.081Z,78.00
2022-08-12T02:12:36.139Z,78.10
2022-08-12T02:15:31.911Z,78.20
2022-08-12T02:18:45.994Z,78.70
2022-08-12T02:22:07.897Z,78.90
2022-08-12T02:25:03.441Z,79.10
2022-08-12T02:27:51.945Z,80.00
2022-08-12T02:30:41.240Z,79.50
2022-08-12T02:33:28.979Z,79.70
2022-08-12T02:36:16.458Z,80.00
2022-08-12T02:39:03.723Z,80.30
2022-08-12T02:41:52.282Z,80.50
2022-08-12T02:44:43.478Z,80.70
2022-08-12T02:47:58.780Z,80.90
2022-08-12T02:50:47.240Z,81.00
2022-08-12T02:53:36.025Z,81.00
2022-08-12T02:56:21.407Z,81.10
2022-08-12T02:59:10.666Z,81.30
2022-08-12T03:02:03.649Z,81.50
2022-08-12T03:04:58.675Z,81.70
2022-08-12T03:07:59.435Z,81.90
2022-08-12T03:10:49.218Z,82.20
2022-08-12T03:13:39.920Z,82.30
2022-08-12T03:16:28.070Z,82.50
2022-08-12T03:19:13.944Z,82.70
2022-08-12T03:22:13.085Z,83.00
2022-08-12T03:25:04.852Z,83.30
2022-08-12T03:27:51.856Z,83.60
2022-08-12T03:30:39.135Z,83.90
2022-08-12T03:33:26.094Z,84.10
2022-08-12T03:36:12.098Z,84.30
2022-08-12T03:39:19.439Z,84.50
2022-08-12T03:42:18.208Z,84.40
2022-08-12T03:45:51.623Z,84.30
2022-08-12T03:48:59.593Z,84.30
2022-08-12T03:52:04.812Z,84.40
2022-08-12T03:55:08.748Z,84.60
2022-08-12T03:58:12.510Z,84.80
2022-08-12T04:00:58.693Z,84.90
2022-08-12T04:03:53.698Z,85.00
2022-08-12T04:06:46.706Z,85.00
2022-08-12T04:09:32.642Z,85.10
2022-08-12T04:12:36.503Z,85.40
2022-08-12T04:15:25.989Z,85.70
2022-08-12T04:18:13.651Z,85.70
2022-08-12T04:20:59.084Z,85.70
2022-08-12T04:23:48.498Z,86.10
2022-08-12T04:26:35.893Z,86.20
2022-08-12T04:29:22.912Z,86.30
2022-08-12T04:32:28.584Z,86.40
2022-08-12T04:35:13.976Z,86.30
2022-08-12T04:38:01.114Z,86.40
2022-08-12T04:40:47.188Z,86.40
2022-08-12T04:43:59.747Z,86.50
2022-08-12T04:46:40.926Z,86.70
2022-08-12T04:49:27.857Z,87.40
2022-08-12T04:52:13.497Z,86.80
2022-08-12T04:54:59.244Z,86.80
2022-08-12T04:57:44.922Z,87.10
2022-08-12T05:00:30.434Z,87.10
2022-08-12T05:03:16.245Z,87.20
2022-08-12T05:06:02.399Z,87.10
2022-08-12T05:08:53.045Z,87.00
2022-08-12T05:11:38.875Z,87.20
2022-08-12T05:14:40.079Z,87.20
2022-08-12T05:17:27.287Z,87.60
2022-08-12T05:20:17.342Z,87.60
2022-08-12T05:23:13.370Z,87.70
2022-08-12T05:25:59.781Z,88.20
2022-08-12T05:28:46.282Z,89.50
2022-08-12T05:31:41.571Z,90.20
2022-08-12T05:34:34.521Z,90.30
2022-08-12T05:37:23.411Z,90.40
2022-08-12T05:40:11.460Z,90.30
2022-08-12T05:42:57.058Z,89.80
2022-08-12T05:45:44.881Z,88.10
2022-08-12T05:48:31.021Z,86.60
2022-08-12T05:51:16.928Z,84.20
2022-08-12T05:54:02.849Z,81.80
2022-08-12T05:56:48.410Z,78.40
2022-08-12T05:59:34.325Z,75.10
2022-08-12T06:02:23.069Z,72.10
2022-08-12T06:05:10.685Z,69.40
2022-08-12T06:08:01.438Z,66.20
2022-08-12T06:10:50.282Z,63.70
2022-08-12T06:13:54.201Z,61.50
2022-08-12T06:16:40.181Z,59.30
2022-08-12T06:19:25.838Z,58.20
2022-08-12T06:22:31.599Z,57.50
2022-08-12T06:25:21.793Z,57.20
2022-08-12T06:28:17.501Z,57.60
2022-08-12T06:35:24.896Z,57.70
2022-08-12T06:37:20.131Z,58.10
2022-08-12T06:40:08.419Z,58.50
2022-08-12T06:42:54.466Z,59.80
2022-08-12T06:45:49.744Z,59.50
2022-08-12T06:48:35.956Z,59.80
2022-08-12T06:51:21.761Z,60.10
2022-08-12T06:54:07.569Z,61.70
2022-08-12T06:57:04.262Z,61.50
2022-08-12T06:59:51.219Z,61.50
2022-08-12T07:02:40.054Z,62.70
2022-08-12T07:05:26.569Z,63.00
2022-08-12T07:08:13.461Z,63.20
2022-08-12T07:11:02.924Z,64.00
2022-08-12T07:14:05.034Z,64.90
2022-08-12T07:17:02.113Z,64.80
2022-08-12T07:19:48.852Z,64.80
2022-08-12T07:22:37.764Z,64.70
2022-08-12T07:25:37.594Z,64.20
2022-08-12T07:28:29.442Z,64.30
2022-08-12T07:31:17.492Z,64.40
2022-08-12T07:34:05.486Z,64.50
2022-08-12T07:36:51.342Z,65.10
2022-08-12T07:39:37.074Z,65.40
2022-08-12T07:42:36.204Z,65.60
2022-08-12T07:45:22.100Z,66.20
2022-08-12T07:48:07.785Z,66.60
2022-08-12T07:50:54.087Z,67.10
2022-08-12T07:53:59.821Z,65.40
2022-08-12T07:56:47.644Z,64.80
2022-08-12T07:59:35.083Z,64.70
2022-08-12T08:02:20.510Z,64.20
2022-08-12T08:05:12.562Z,63.90
2022-08-12T08:08:01.721Z,63.70
2022-08-12T08:10:49.496Z,64.00
2022-08-12T08:13:35.150Z,63.50
2022-08-12T08:16:20.607Z,63.00
2022-08-12T08:19:07.136Z,62.60
2022-08-12T08:21:57.166Z,61.90
2022-08-12T08:24:42.514Z,61.50
2022-08-12T08:27:29.138Z,61.00
2022-08-12T08:30:16.411Z,61.10
2022-08-12T08:33:08.634Z,60.70
2022-08-12T08:36:23.939Z,60.20
2022-08-12T08:39:13.123Z,59.70
2022-08-12T08:42:20.198Z,59.50
2022-08-12T08:45:12.999Z,58.90
2022-08-12T08:48:00.455Z,58.70
2022-08-12T08:50:46.314Z,58.20
2022-08-12T08:53:52.826Z,57.70
2022-08-12T08:56:43.374Z,57.40
2022-08-12T08:59:29.084Z,57.20
2022-08-12T09:02:14.651Z,57.30
2022-08-12T09:05:12.131Z,56.50
2022-08-12T09:14:35.694Z,54.70
2022-08-12T09:17:22.298Z,54.40
2022-08-12T09:20:09.535Z,54.10
2022-08-12T09:22:56.399Z,53.60
2022-08-12T09:25:44.454Z,54.00
2022-08-12T09:28:37.275Z,53.40
2022-08-12T09:32:07.437Z,52.70
2022-08-12T09:34:33.425Z,51.30
2022-08-12T09:37:22.602Z,49.80
2022-08-12T09:41:01.673Z,49.80
2022-08-12T09:43:36.624Z,49.40
2022-08-12T09:46:25.474Z,49.70
2022-08-12T09:49:13.164Z,48.20
2022-08-12T09:52:02.219Z,46.80
2022-08-12T09:54:48.313Z,45.60
2022-08-12T09:58:44.465Z,45.60
2022-08-12T10:00:52.235Z,45.70
2022-08-12T10:04:03.148Z,45.10
2022-08-12T10:06:55.698Z,44.10
2022-08-12T10:09:58.658Z,43.90
2022-08-12T10:13:12.666Z,42.90
2022-08-12T10:16:02.711Z,41.90
2022-08-12T10:19:19.465Z,41.70
2022-08-12T10:22:16.521Z,42.00
2022-08-12T10:25:21.661Z,41.10
2022-08-12T10:28:25.551Z,40.60
2022-08-12T10:31:16.314Z,39.20
2022-08-12T10:34:06.627Z,37.80
2022-08-12T10:37:20.966Z,37.90
2022-08-12T10:40:15.649Z,37.60
2022-08-12T10:43:24.028Z,38.00
2022-08-12T10:46:19.221Z,36.50
2022-08-12T10:50:10.505Z,35.60
2022-08-12T10:52:34.161Z,35.10
2022-08-12T10:55:23.139Z,35.00
2022-08-12T10:58:15.796Z,35.20
2022-08-12T11:01:49.715Z,35.00
2022-08-12T11:04:39.620Z,34.50
2022-08-12T11:08:34.094Z,33.70
2022-08-12T11:10:41.093Z,31.80
2022-08-12T11:13:46.928Z,31.80
2022-08-12T11:16:35.441Z,32.00
2022-08-12T11:19:22.445Z,31.80
2022-08-12T11:22:10.825Z,31.70
2022-08-12T11:24:57.259Z,31.80
2022-08-12T11:27:44.198Z,30.40
2022-08-12T11:30:36.854Z,30.00
2022-08-12T11:34:03.140Z,29.80
2022-08-12T11:36:27.601Z,29.60
2022-08-12T11:39:13.856Z,30.00
2022-08-12T11:42:03.195Z,30.00
2022-08-12T11:44:50.728Z,30.20
2022-08-12T11:47:36.505Z,30.10
2022-08-12T11:50:32.358Z,30.10
2022-08-12T11:53:57.284Z,29.70
2022-08-12T11:56:24.562Z,28.80
2022-08-12T12:02:29.885Z,28.90
2022-08-12T12:05:16.467Z,29.40
2022-08-12T12:08:37.669Z,29.50
2022-08-12T12:11:12.276Z,29.20
2022-08-12T12:14:07.980Z,28.50
2022-08-12T12:16:56.581Z,28.20
2022-08-12T12:19:46.368Z,28.00
2022-08-12T12:22:35.714Z,28.00
2022-08-12T12:25:21.431Z,27.50
2022-08-12T12:28:37.726Z,27.20
2022-08-12T12:32:11.173Z,27.40
2022-08-12T12:34:30.918Z,27.00
2022-08-12T12:37:58.883Z,26.30
2022-08-12T12:40:29.991Z,26.50
2022-08-12T12:43:17.562Z,26.90
2022-08-12T12:46:14.818Z,27.30
2022-08-12T12:49:00.261Z,27.90
2022-08-12T12:51:48.928Z,28.00
2022-08-12T12:54:35.601Z,27.60
2022-08-12T12:57:59.759Z,27.80
2022-08-12T13:00:29.418Z,28.70
2022-08-12T13:03:19.356Z,29.10
2022-08-12T13:06:09.991Z,28.50
2022-08-12T13:08:57.076Z,28.80
2022-08-12T13:11:53.268Z,29.30
2022-08-12T13:14:39.878Z,28.70
2022-08-12T13:17:25.767Z,28.90
2022-08-12T13:20:37.704Z,30.00
2022-08-12T13:23:36.843Z,30.30
2022-08-12T13:26:23.995Z,29.50
2022-08-12T13:29:12.940Z,29.60
2022-08-12T13:32:19.087Z,30.40
2022-08-12T13:35:20.341Z,30.20
2022-08-12T13:38:14.074Z,30.00
2022-08-12T13:40:59.656Z,29.60
2022-08-12T13:43:45.341Z,29.70
2022-08-12T13:46:30.976Z,29.60
2022-08-12T13:49:17.338Z,29.40
2022-08-12T13:52:25.753Z,29.50
2022-08-12T13:55:11.635Z,30.10
2022-08-12T13:57:59.837Z,31.10
2022-08-12T14:00:55.089Z,31.50
2022-08-12T14:03:51.602Z,31.60
2022-08-12T14:06:38.869Z,31.60
2022-08-12T14:09:29.532Z,31.20
2022-08-12T14:12:16.269Z,31.80
2022-08-12T14:15:01.867Z,30.30
2022-08-12T14:17:52.171Z,29.90
2022-08-12T14:20:38.216Z,30.50
2022-08-12T14:24:04.083Z,30.20
2022-08-12T14:26:32.260Z,31.20
2022-08-12T14:29:38.309Z,31.80
2022-08-12T14:32:24.891Z,31.10
2022-08-12T14:35:11.211Z,30.90
2022-08-12T14:37:59.122Z,31.30
2022-08-12T14:40:44.852Z,31.50
2022-08-12T14:43:44.363Z,31.60
2022-08-12T14:46:44.110Z,30.70
2022-08-12T14:50:41.362Z,30.90
2022-08-12T14:59:20.363Z,31.40
2022-08-12T15:02:20.616Z,31.80
2022-08-12T15:05:08.135Z,32.20
2022-08-12T15:08:04.883Z,32.40
2022-08-12T15:10:54.111Z,32.00
2022-08-12T15:13:41.975Z,31.00
2022-08-12T15:16:27.618Z,30.40
2022-08-12T15:20:10.935Z,30.50
2022-08-12T15:22:38.643Z,31.30
2022-08-12T15:25:24.750Z,32.10
2022-08-12T15:28:10.829Z,32.30
2022-08-12T15:31:21.429Z,32.60
2022-08-12T15:34:09.161Z,33.10
2022-08-12T15:36:56.770Z,32.50
2022-08-12T15:39:55.267Z,31.70
2022-08-12T15:42:50.987Z,31.70
2022-08-12T15:45:39.577Z,31.10
2022-08-12T15:48:30.429Z,32.90
2022-08-12T15:51:57.636Z,32.70
2022-08-12T15:54:44.893Z,32.50
2022-08-12T15:57:33.330Z,32.20
2022-08-12T16:00:40.022Z,32.60
2022-08-12T16:03:46.305Z,32.10
2022-08-12T16:09:55.750Z,32.80
2022-08-12T16:12:56.546Z,33.10
2022-08-12T16:15:42.521Z,33.70
2022-08-12T16:18:48.072Z,34.20
2022-08-12T16:21:52.880Z,33.70
2022-08-12T16:24:43.656Z,32.80
2022-08-12T16:27:31.641Z,32.40
2022-08-12T16:30:39.814Z,33.10
2022-08-12T16:33:35.693Z,33.50
2022-08-12T16:36:21.285Z,34.40
2022-08-12T16:39:06.764Z,34.70
2022-08-12T16:41:54.160Z,34.80
2022-08-12T16:44:43.080Z,35.00
2022-08-12T16:47:58.468Z,34.50
2022-08-12T16:50:42.130Z,34.70
2022-08-12T16:53:30.648Z,35.70
2022-08-12T16:56:29.367Z,35.80
2022-08-12T16:59:16.139Z,35.80
2022-08-12T17:02:06.299Z,35.80
2022-08-12T17:04:54.223Z,35.60
2022-08-12T17:07:43.570Z,35.50
2022-08-12T17:10:36.435Z,35.40
2022-08-12T17:13:24.299Z,35.50
2022-08-12T17:16:17.798Z,35.40
2022-08-12T17:19:09.455Z,35.40
2022-08-12T17:22:02.424Z,35.50
2022-08-12T17:24:54.724Z,35.50
2022-08-12T17:27:47.488Z,36.10
2022-08-12T17:30:44.325Z,36.10
2022-08-12T17:33:33.542Z,36.30
2022-08-12T17:36:24.562Z,36.80
2022-08-12T17:39:12.766Z,37.10
2022-08-12T17:42:00.621Z,37.50
2022-08-12T17:44:46.352Z,37.50
2022-08-12T17:47:36.243Z,37.70
2022-08-12T17:50:23.611Z,38.40
2022-08-12T17:53:16.567Z,38.80
2022-08-12T17:56:05.933Z,38.60
2022-08-12T17:58:58.784Z,38.50
2022-08-12T18:01:48.559Z,39.40
2022-08-12T18:04:35.863Z,40.10
2022-08-12T18:07:23.567Z,39.70
2022-08-12T18:10:13.101Z,39.90
2022-08-12T18:13:01.363Z,39.80
2022-08-12T18:16:04.249Z,40.00
2022-08-12T18:18:58.659Z,40.20
2022-08-12T18:22:02.758Z,40.20
2022-08-12T18:24:49.760Z,40.50
2022-08-12T18:28:15.510Z,40.90
2022-08-12T18:31:02.983Z,41.70
2022-08-12T18:33:50.340Z,41.10
2022-08-12T18:36:37.687Z,41.30
2022-08-12T18:39:23.381Z,41.70
2022-08-12T18:42:09.092Z,41.90
2022-08-12T18:45:01.145Z,41.90
2022-08-12T18:47:50.065Z,42.30
2022-08-12T18:50:49.374Z,42.50
2022-08-12T18:54:07.314Z,42.80
2022-08-12T18:56:42.819Z,43.10
2022-08-12T19:00:00.286Z,43.10
2022-08-12T19:02:40.755Z,43.10
2022-08-12T19:05:53.228Z,43.30
2022-08-12T19:08:36.348Z,43.50
2022-08-12T19:11:45.262Z,43.50
2022-08-12T19:14:32.834Z,43.70
2022-08-12T19:17:20.466Z,43.80
2022-08-12T19:20:06.246Z,44.00
2022-08-12T19:22:59.737Z,44.20
2022-08-12T19:26:01.605Z,44.40
2022-08-12T19:28:49.802Z,44.60
2022-08-12T19:31:56.826Z,44.90
2022-08-12T19:36:08.085Z,45.20
2022-08-12T19:38:03.957Z,45.30
2022-08-12T19:40:54.876Z,45.60
2022-08-12T19:44:00.385Z,45.90
2022-08-12T19:46:52.877Z,46.10
2022-08-12T19:49:49.856Z,46.30
2022-08-12T19:52:35.675Z,46.50
2022-08-12T19:55:25.509Z,46.70
2022-08-12T19:58:17.948Z,47.10
2022-08-12T20:01:10.805Z,48.10
2022-08-12T20:03:59.993Z,48.00
2022-08-12T20:06:53.649Z,48.40
2022-08-12T20:09:41.297Z,48.70
2022-08-12T20:12:44.683Z,49.20
2022-08-12T20:15:44.395Z,49.50
2022-08-12T20:18:44.064Z,49.90
2022-08-12T20:21:42.595Z,50.40
2022-08-12T20:24:31.315Z,50.80
2022-08-12T20:27:29.214Z,51.00
2022-08-12T20:30:37.310Z,51.40
2022-08-12T20:33:50.220Z,51.90
2022-08-12T20:36:41.031Z,52.30
2022-08-12T20:39:53.215Z,52.60
2022-08-12T20:42:35.044Z,52.90
2022-08-12T20:45:22.208Z,53.30
2022-08-12T20:48:13.920Z,53.70
2022-08-12T20:51:08.576Z,54.20
2022-08-12T20:54:03.149Z,54.30
2022-08-12T20:56:48.857Z,54.60
2022-08-12T20:59:37.944Z,54.70
2022-08-12T21:02:33.362Z,54.90
2022-08-12T21:06:10.298Z,55.00
2022-08-12T21:08:44.107Z,55.10
2022-08-12T21:11:30.349Z,55.30
2022-08-12T21:14:18.057Z,55.50
2022-08-12T21:18:00.293Z,55.80
2022-08-12T21:20:30.801Z,56.20
2022-08-12T21:23:22.853Z,56.30
2022-08-12T21:26:16.426Z,56.60
2022-08-12T21:29:07.083Z,56.90
2022-08-12T21:32:39.090Z,57.10
2022-08-12T21:34:59.490Z,57.30
2022-08-12T21:37:52.981Z,57.50
2022-08-12T21:40:51.918Z,58.00
2022-08-12T21:43:44.610Z,58.20
2022-08-12T21:46:34.648Z,58.60
2022-08-12T21:49:53.955Z,58.80
2022-08-12T21:52:33.970Z,59.00
2022-08-12T21:55:29.167Z,59.20
2022-08-12T21:58:16.585Z,59.60
2022-08-12T22:01:03.723Z,59.90
2022-08-12T22:04:15.233Z,60.00
2022-08-12T22:07:02.186Z,60.40
2022-08-12T22:09:48.019Z,60.60
2022-08-12T22:12:44.638Z,60.80
2022-08-12T22:15:29.953Z,61.20
2022-08-12T22:18:16.174Z,61.30
2022-08-12T22:21:01.859Z,61.70
2022-08-12T22:23:51.802Z,61.80
2022-08-12T22:26:50.038Z,62.20
2022-08-12T22:29:55.047Z,62.60
2022-08-12T22:32:51.283Z,62.90
2022-08-12T22:35:56.181Z,63.00
2022-08-12T22:38:46.831Z,63.40
2022-08-12T22:41:56.752Z,63.60
2022-08-12T22:45:01.793Z,63.90
2022-08-12T22:47:54.473Z,64.00
2022-08-12T22:50:43.576Z,64.40
2022-08-12T22:53:36.111Z,64.60
2022-08-12T22:56:31.414Z,64.90
2022-08-12T22:59:17.432Z,65.20
2022-08-12T23:02:07.901Z,65.40
2022-08-12T23:05:00.887Z,65.80
2022-08-12T23:07:58.944Z,66.00
2022-08-12T23:10:47.146Z,67.00
2022-08-12T23:13:47.369Z,66.50
2022-08-12T23:16:34.326Z,66.90
2022-08-12T23:19:36.172Z,67.10
2022-08-12T23:22:36.439Z,67.50
2022-08-12T23:25:32.592Z,67.70
2022-08-12T23:28:52.588Z,67.90
2022-08-12T23:32:02.561Z,68.00
2022-08-12T23:34:47.824Z,68.20
2022-08-12T23:37:47.413Z,69.20
2022-08-12T23:40:38.980Z,69.40
2022-08-12T23:43:25.591Z,68.70
2022-08-12T23:46:18.537Z,68.80
2022-08-12T23:49:55.077Z,69.40
2022-08-12T23:52:12.750Z,69.60
2022-08-12T23:54:59.175Z,69.70
2022-08-12T23:58:23.063Z,69.80
